Time;durP1;ratioP1;P1;durP2;ratioP2;P2;SDS_P1;SDS_P2;PMS_P1;PMS_P2;Temp;Humidity;BMP_temperature;BMP_pressure;BME280_temperature;BME280_humidity;BME280_pressure;Samples;Min_cycle;Max_cycle;Signal;HPM_P1;HPM_P2
2022/08/31 00:05:10;;;;;;;2.15;0.35;;;;;;;;;;5063987;28;20490;-60
2022/08/31 00:07:37;;;;;;;2.85;0.43;;;;;;;;;;5063780;28;20055;-60
2022/08/31 00:10:12;;;;;;;0.85;0.20;;;;;;;;;;5062918;28;20116;-60
2022/08/31 00:12:39;;;;;;;1.13;0.30;;;;;;;;;;5063346;28;20120;-60
2022/08/31 00:15:05;;;;;;;2.45;0.50;;;;;;;;;;5063241;28;20047;-60
2022/08/31 00:17:31;;;;;;;1.20;0.32;;;;;;;;;;5063250;28;20562;-60
2022/08/31 00:19:57;;;;;;;1.83;0.65;;;;;;;;;;5063930;28;20119;-60
2022/08/31 00:22:23;;;;;;;1.77;0.40;;;;;;;;;;5062111;28;20087;-60
2022/08/31 00:24:50;;;;;;;2.55;0.30;;;;;;;;;;5062477;28;20076;-60
2022/08/31 00:27:16;;;;;;;2.78;0.40;;;;;;;;;;5063158;28;20124;-60
2022/08/31 00:29:42;;;;;;;3.47;0.40;;;;;;;;;;5063125;28;20060;-60
2022/08/31 00:32:08;;;;;;;2.13;0.60;;;;;;;;;;5062945;28;20044;-60
2022/08/31 00:34:34;;;;;;;2.22;0.28;;;;;;;;;;5063102;28;20048;-60
2022/08/31 00:37:00;;;;;;;0.80;0.22;;;;;;;;;;5061551;28;20044;-60
2022/08/31 00:39:26;;;;;;;1.60;0.30;;;;;;;;;;5062680;28;20051;-60
2022/08/31 00:41:53;;;;;;;2.58;0.30;;;;;;;;;;5062556;28;20051;-60
2022/08/31 00:44:19;;;;;;;0.30;0.20;;;;;;;;;;5063204;28;20305;-60
2022/08/31 00:46:45;;;;;;;3.85;0.50;;;;;;;;;;5060733;28;20179;-60
2022/08/31 00:49:11;;;;;;;0.95;0.30;;;;;;;;;;5062999;28;20056;-60
2022/08/31 00:51:40;;;;;;;1.52;0.25;;;;;;;;;;5062682;28;20036;-60
2022/08/31 00:54:08;;;;;;;0.65;0.20;;;;;;;;;;5062261;28;20047;-60
2022/08/31 00:56:35;;;;;;;0.67;0.20;;;;;;;;;;5049804;28;20171;-60
2022/08/31 00:59:02;;;;;;;0.65;0.22;;;;;;;;;;5055237;28;20291;-60
2022/08/31 01:01:29;;;;;;;0.93;0.20;;;;;;;;;;5062560;28;20049;-60
2022/08/31 01:03:55;;;;;;;1.90;0.30;;;;;;;;;;5063100;28;20059;-60
2022/08/31 01:06:22;;;;;;;1.08;0.30;;;;;;;;;;5062624;28;20285;-60
2022/08/31 01:08:49;;;;;;;5.43;0.57;;;;;;;;;;5061837;28;20043;-60
2022/08/31 01:11:17;;;;;;;0.93;0.40;;;;;;;;;;5062664;28;20044;-60
2022/08/31 01:13:43;;;;;;;4.05;0.40;;;;;;;;;;5062326;28;20048;-60
2022/08/31 01:16:12;;;;;;;1.27;0.30;;;;;;;;;;5057670;28;20175;-60
2022/08/31 01:18:38;;;;;;;1.33;0.20;;;;;;;;;;5061972;28;20767;-60
2022/08/31 01:21:16;;;;;;;0.55;0.20;;;;;;;;;;5062500;28;20040;-60
2022/08/31 01:23:44;;;;;;;0.70;0.22;;;;;;;;;;5061392;28;20047;-60
2022/08/31 01:26:12;;;;;;;2.28;0.30;;;;;;;;;;5062512;28;20167;-60
2022/08/31 01:28:38;;;;;;;2.10;0.30;;;;;;;;;;5062108;28;20541;-60
2022/08/31 01:31:08;;;;;;;3.38;0.25;;;;;;;;;;5062685;28;20037;-60
2022/08/31 01:33:35;;;;;;;0.43;0.20;;;;;;;;;;5062267;28;20040;-60
2022/08/31 01:36:01;;;;;;;0.60;0.10;;;;;;;;;;5062306;28;20041;-60
2022/08/31 01:38:28;;;;;;;1.42;0.20;;;;;;;;;;5063003;28;20102;-60
2022/08/31 01:40:56;;;;;;;1.38;0.20;;;;;;;;;;5061134;28;20040;-60
2022/08/31 01:43:23;;;;;;;1.63;0.20;;;;;;;;;;5055749;28;20545;-60
2022/08/31 01:45:49;;;;;;;2.55;0.40;;;;;;;;;;5061992;28;20059;-60
2022/08/31 01:48:16;;;;;;;1.63;0.10;;;;;;;;;;5062300;28;20387;-60
2022/08/31 01:50:42;;;;;;;1.73;0.10;;;;;;;;;;5060899;28;20443;-60
2022/08/31 01:53:08;;;;;;;1.50;0.22;;;;;;;;;;5062274;28;20113;-60
2022/08/31 01:55:35;;;;;;;0.77;0.28;;;;;;;;;;5060638;28;20546;-60
2022/08/31 01:58:01;;;;;;;2.08;0.20;;;;;;;;;;5048217;28;20506;-60
2022/08/31 02:00:28;;;;;;;0.95;0.17;;;;;;;;;;5062448;28;20048;-60
2022/08/31 02:02:55;;;;;;;0.50;0.17;;;;;;;;;;5062166;28;20123;-60
2022/08/31 02:05:21;;;;;;;2.60;0.30;;;;;;;;;;5065029;28;20106;-60
2022/08/31 02:07:47;;;;;;;0.88;0.20;;;;;;;;;;5055192;28;20037;-60
2022/08/31 02:10:14;;;;;;;3.00;0.30;;;;;;;;;;5050886;28;20486;-60
2022/08/31 02:12:40;;;;;;;0.70;0.10;;;;;;;;;;5049297;28;20037;-60
2022/08/31 02:15:07;;;;;;;0.32;0.20;;;;;;;;;;5053091;28;20071;-60
2022/08/31 02:17:33;;;;;;;0.57;0.15;;;;;;;;;;5052755;28;20111;-60
2022/08/31 02:19:59;;;;;;;0.50;0.20;;;;;;;;;;5058596;28;20478;-60
2022/08/31 02:22:25;;;;;;;0.65;0.20;;;;;;;;;;5066016;28;20040;-60
2022/08/31 02:24:51;;;;;;;3.17;0.60;;;;;;;;;;5065206;28;20580;-60
2022/08/31 02:27:17;;;;;;;0.55;0.20;;;;;;;;;;5051335;28;20112;-60
2022/08/31 02:29:44;;;;;;;0.60;0.20;;;;;;;;;;5064312;28;20489;-60
2022/08/31 02:32:10;;;;;;;1.10;0.30;;;;;;;;;;5065303;28;20040;-60
2022/08/31 02:34:36;;;;;;;0.50;0.13;;;;;;;;;;5065472;28;20040;-60
2022/08/31 02:37:02;;;;;;;1.17;0.20;;;;;;;;;;5065705;28;20123;-60
2022/08/31 02:39:28;;;;;;;2.78;0.40;;;;;;;;;;5065352;28;20596;-60
2022/08/31 02:41:54;;;;;;;3.78;0.15;;;;;;;;;;5065067;28;20498;-60
2022/08/31 02:44:21;;;;;;;0.82;0.32;;;;;;;;;;5050703;28;20044;-60
2022/08/31 02:46:47;;;;;;;0.22;0.13;;;;;;;;;;5064939;28;20048;-59
2022/08/31 02:49:13;;;;;;;1.35;0.30;;;;;;;;;;5056305;28;20047;-60
2022/08/31 02:51:40;;;;;;;1.13;0.22;;;;;;;;;;5065539;28;20146;-60
2022/08/31 02:54:07;;;;;;;2.90;0.10;;;;;;;;;;5064670;28;20127;-60
2022/08/31 02:56:33;;;;;;;0.52;0.28;;;;;;;;;;5064294;28;20098;-60
2022/08/31 02:58:59;;;;;;;0.45;0.30;;;;;;;;;;5065350;28;20525;-60
2022/08/31 03:01:25;;;;;;;2.90;0.30;;;;;;;;;;5050654;28;20546;-60
2022/08/31 03:03:52;;;;;;;0.73;0.40;;;;;;;;;;5064934;28;20067;-60
2022/08/31 03:06:19;;;;;;;0.82;0.20;;;;;;;;;;5064810;28;20384;-60
2022/08/31 03:08:46;;;;;;;0.55;0.20;;;;;;;;;;5063955;28;20076;-60
2022/08/31 03:11:13;;;;;;;0.65;0.25;;;;;;;;;;5064731;28;20055;-60
2022/08/31 03:13:39;;;;;;;2.78;0.30;;;;;;;;;;5064534;28;20040;-60
2022/08/31 03:16:06;;;;;;;1.50;0.30;;;;;;;;;;5064603;28;20780;-60
2022/08/31 03:18:32;;;;;;;1.02;0.25;;;;;;;;;;5048921;28;20110;-60
2022/08/31 03:20:58;;;;;;;0.90;0.25;;;;;;;;;;5063981;28;20044;-60
2022/08/31 03:23:25;;;;;;;0.30;0.20;;;;;;;;;;5064237;28;20044;-60
2022/08/31 03:25:51;;;;;;;2.30;0.30;;;;;;;;;;5064301;28;20064;-60
2022/08/31 03:28:17;;;;;;;0.63;0.20;;;;;;;;;;5064225;28;20055;-59
2022/08/31 03:30:43;;;;;;;0.77;0.20;;;;;;;;;;5064246;28;20033;-60
2022/08/31 03:33:10;;;;;;;0.40;0.20;;;;;;;;;;5064784;28;20052;-60
2022/08/31 03:35:36;;;;;;;0.32;0.10;;;;;;;;;;5064104;28;20505;-60
2022/08/31 03:38:04;;;;;;;5.72;0.30;;;;;;;;;;5064645;28;20139;-60
2022/08/31 03:40:31;;;;;;;1.80;0.20;;;;;;;;;;5063543;28;20624;-60
2022/08/31 03:42:57;;;;;;;5.93;0.30;;;;;;;;;;5064384;28;20044;-59
2022/08/31 03:45:24;;;;;;;0.60;0.28;;;;;;;;;;5063944;28;20131;-59
2022/08/31 03:47:50;;;;;;;0.80;0.25;;;;;;;;;;5062500;28;20568;-60
2022/08/31 03:50:16;;;;;;;0.50;0.20;;;;;;;;;;5054584;28;20132;-60
2022/08/31 03:52:42;;;;;;;1.10;0.20;;;;;;;;;;5062408;28;20116;-60
2022/08/31 03:55:09;;;;;;;2.80;0.20;;;;;;;;;;5063461;28;20079;-60
2022/08/31 03:57:35;;;;;;;0.60;0.20;;;;;;;;;;5062958;28;20593;-60
2022/08/31 04:00:02;;;;;;;3.00;0.20;;;;;;;;;;5063773;28;20056;-60
2022/08/31 04:02:28;;;;;;;1.63;0.30;;;;;;;;;;5064052;28;20063;-60
2022/08/31 04:04:54;;;;;;;1.88;0.40;;;;;;;;;;5062890;28;20490;-60
2022/08/31 04:07:20;;;;;;;6.55;0.35;;;;;;;;;;5063751;28;20048;-59
2022/08/31 04:09:47;;;;;;;0.65;0.30;;;;;;;;;;5062578;28;20130;-59
2022/08/31 04:12:14;;;;;;;3.00;0.22;;;;;;;;;;5061658;28;20724;-60
2022/08/31 04:14:41;;;;;;;0.95;0.20;;;;;;;;;;5063618;28;20097;-60
2022/08/31 04:17:09;;;;;;;0.50;0.15;;;;;;;;;;5058349;28;20051;-60
2022/08/31 04:19:35;;;;;;;3.30;0.30;;;;;;;;;;5054946;28;20049;-60
2022/08/31 04:22:01;;;;;;;2.80;0.40;;;;;;;;;;5063515;28;20097;-60
2022/08/31 04:24:28;;;;;;;1.33;0.20;;;;;;;;;;5062013;28;20551;-59
2022/08/31 04:26:54;;;;;;;0.68;0.38;;;;;;;;;;5062184;28;20071;-60
2022/08/31 04:29:20;;;;;;;2.85;0.50;;;;;;;;;;5063371;28;20735;-59
2022/08/31 04:31:46;;;;;;;5.50;0.30;;;;;;;;;;5063268;28;20041;-60
2022/08/31 04:34:13;;;;;;;1.98;0.40;;;;;;;;;;5063495;28;20044;-60
2022/08/31 04:36:39;;;;;;;1.40;0.30;;;;;;;;;;5062768;28;20048;-60
2022/08/31 04:39:06;;;;;;;0.88;0.30;;;;;;;;;;5062375;28;20068;-60
2022/08/31 04:41:34;;;;;;;1.50;0.30;;;;;;;;;;5062118;28;20636;-60
2022/08/31 04:44:00;;;;;;;;;;;;;;;;;;5063249;28;20052;-60
2022/08/31 04:46:27;;;;;;;1.63;0.70;;;;;;;;;;5063540;28;19921;-60
2022/08/31 04:48:53;;;;;;;2.00;0.65;;;;;;;;;;5062627;28;20058;-60
2022/08/31 04:51:22;;;;;;;3.90;0.50;;;;;;;;;;5063185;28;20051;-60
2022/08/31 04:53:48;;;;;;;2.10;0.25;;;;;;;;;;5057109;28;20048;-59
2022/08/31 04:56:17;;;;;;;0.82;0.40;;;;;;;;;;5061292;28;20040;-60
2022/08/31 04:58:45;;;;;;;0.50;0.20;;;;;;;;;;5062816;28;20094;-60
2022/08/31 05:01:12;;;;;;;2.50;0.40;;;;;;;;;;5062728;28;20099;-59
2022/08/31 05:03:39;;;;;;;2.70;0.40;;;;;;;;;;5062660;28;20048;-59
2022/08/31 05:06:06;;;;;;;1.45;0.40;;;;;;;;;;5062591;28;20071;-60
2022/08/31 05:08:32;;;;;;;0.88;0.30;;;;;;;;;;5045864;28;20041;-59
2022/08/31 05:10:58;;;;;;;1.88;0.38;;;;;;;;;;5041787;28;20087;-59
2022/08/31 05:13:24;;;;;;;0.52;0.30;;;;;;;;;;5042895;28;20041;-59
2022/08/31 05:15:53;;;;;;;8.13;0.60;;;;;;;;;;5041939;28;20503;-59
2022/08/31 05:18:19;;;;;;;0.45;0.30;;;;;;;;;;5043509;28;20049;-59
2022/08/31 05:20:47;;;;;;;0.70;0.30;;;;;;;;;;5062514;28;20048;-57
2022/08/31 05:23:13;;;;;;;1.42;0.60;;;;;;;;;;5061682;28;20048;-57
2022/08/31 05:25:39;;;;;;;1.67;0.40;;;;;;;;;;5061617;28;20555;-57
2022/08/31 05:28:06;;;;;;;0.65;0.30;;;;;;;;;;5057632;28;20127;-57
2022/08/31 05:30:33;;;;;;;1.13;0.40;;;;;;;;;;5057624;28;20059;-57
2022/08/31 05:32:59;;;;;;;1.38;0.40;;;;;;;;;;5060763;28;20094;-58
2022/08/31 05:35:25;;;;;;;2.15;0.38;;;;;;;;;;5059193;28;20139;-57
2022/08/31 05:37:51;;;;;;;0.93;0.43;;;;;;;;;;5060750;28;20072;-58
2022/08/31 05:40:17;;;;;;;0.65;0.35;;;;;;;;;;5062554;28;20474;-57
2022/08/31 05:42:43;;;;;;;2.10;0.40;;;;;;;;;;5063110;28;20036;-58
2022/08/31 05:45:10;;;;;;;5.28;0.60;;;;;;;;;;5064348;28;20178;-59
2022/08/31 05:47:36;;;;;;;0.80;0.32;;;;;;;;;;5047975;28;20037;-59
2022/08/31 05:50:03;;;;;;;0.85;0.30;;;;;;;;;;5046347;28;20349;-59
2022/08/31 05:52:29;;;;;;;0.55;0.35;;;;;;;;;;5045653;28;20513;-60
2022/08/31 05:54:55;;;;;;;1.10;0.50;;;;;;;;;;5044973;28;20041;-58
2022/08/31 05:57:21;;;;;;;0.63;0.35;;;;;;;;;;5045960;28;20052;-58
2022/08/31 05:59:49;;;;;;;1.75;0.32;;;;;;;;;;5054882;28;20052;-58
2022/08/31 06:02:15;;;;;;;1.95;0.55;;;;;;;;;;5044311;28;20053;-58
2022/08/31 06:04:41;;;;;;;1.02;0.65;;;;;;;;;;5045585;28;20037;-58
2022/08/31 06:07:09;;;;;;;2.60;0.50;;;;;;;;;;5045161;28;20033;-58
2022/08/31 06:09:37;;;;;;;20.10;0.88;;;;;;;;;;5054509;28;20102;-59
2022/08/31 06:12:04;;;;;;;1.17;0.40;;;;;;;;;;5045652;28;20047;-59
2022/08/31 06:14:31;;;;;;;1.35;0.60;;;;;;;;;;5045686;28;20410;-59
2022/08/31 06:16:58;;;;;;;1.27;0.43;;;;;;;;;;5046175;28;20506;-59
2022/08/31 06:19:26;;;;;;;5.47;1.42;;;;;;;;;;5056265;28;20060;-59
2022/08/31 06:21:52;;;;;;;1.15;0.30;;;;;;;;;;5065698;28;20126;-59
2022/08/31 06:24:19;;;;;;;1.00;0.32;;;;;;;;;;5064369;28;20048;-59
2022/08/31 06:26:51;;;;;;;1.65;0.50;;;;;;;;;;5063835;28;20095;-59
2022/08/31 06:29:17;;;;;;;1.58;0.52;;;;;;;;;;5059235;28;20060;-58
2022/08/31 06:31:46;;;;;;;5.82;0.63;;;;;;;;;;5058546;28;20429;-58
2022/08/31 06:34:13;;;;;;;1.33;0.55;;;;;;;;;;5065258;28;20147;-59
2022/08/31 06:36:39;;;;;;;2.30;0.47;;;;;;;;;;5064758;28;20048;-58
2022/08/31 06:39:05;;;;;;;1.75;0.57;;;;;;;;;;5064347;28;20520;-58
2022/08/31 06:41:33;;;;;;;4.45;0.60;;;;;;;;;;5060512;28;20399;-59
2022/08/31 06:44:01;;;;;;;1.65;0.40;;;;;;;;;;5064816;28;20044;-59
2022/08/31 06:46:28;;;;;;;1.80;0.50;;;;;;;;;;5065550;28;20040;-59
2022/08/31 06:48:56;;;;;;;0.77;0.40;;;;;;;;;;5065421;28;20554;-59
2022/08/31 06:51:23;;;;;;;1.23;0.60;;;;;;;;;;5064165;28;20468;-59
2022/08/31 06:53:49;;;;;;;1.60;0.47;;;;;;;;;;5064355;28;20106;-59
2022/08/31 06:56:16;;;;;;;4.90;0.57;;;;;;;;;;5064916;28;20047;-59
2022/08/31 06:58:43;;;;;;;1.50;0.70;;;;;;;;;;5063553;28;20109;-59
2022/08/31 07:01:12;;;;;;;1.20;0.50;;;;;;;;;;5064530;28;20032;-59
2022/08/31 07:03:39;;;;;;;1.85;0.70;;;;;;;;;;5063590;28;20052;-59
2022/08/31 07:06:08;;;;;;;3.75;0.80;;;;;;;;;;5064480;28;20042;-59
2022/08/31 07:08:35;;;;;;;1.65;0.50;;;;;;;;;;5063902;28;21270;-59
2022/08/31 07:11:02;;;;;;;1.90;0.50;;;;;;;;;;5064634;28;20044;-59
2022/08/31 07:13:28;;;;;;;2.30;0.50;;;;;;;;;;5065182;28;20506;-59
2022/08/31 07:16:02;;;;;;;3.60;0.50;;;;;;;;;;5065127;28;20414;-59
2022/08/31 07:18:29;;;;;;;1.52;0.50;;;;;;;;;;5050270;28;20044;-60
2022/08/31 07:20:55;;;;;;;1.63;0.50;;;;;;;;;;5065421;28;20037;-59
2022/08/31 07:23:21;;;;;;;5.53;0.50;;;;;;;;;;5063665;28;20036;-59
2022/08/31 07:25:47;;;;;;;4.63;0.60;;;;;;;;;;5064282;28;20569;-59
2022/08/31 07:28:14;;;;;;;3.53;0.50;;;;;;;;;;5064704;28;20120;-59
2022/08/31 07:30:41;;;;;;;4.72;0.50;;;;;;;;;;5064261;28;20051;-59
2022/08/31 07:33:08;;;;;;;2.03;0.40;;;;;;;;;;5063648;28;20051;-59
2022/08/31 07:35:34;;;;;;;3.03;0.47;;;;;;;;;;5064016;28;20044;-59
2022/08/31 07:43:30;;;;;;;4.18;0.40;;;;;;;;;;5064295;28;20080;-60
2022/08/31 07:45:56;;;;;;;2.05;0.40;;;;;;;;;;5064124;28;20098;-59
2022/08/31 07:48:22;;;;;;;1.13;0.47;;;;;;;;;;5063830;28;20051;-59
2022/08/31 07:50:48;;;;;;;1.17;0.40;;;;;;;;;;5063780;28;20037;-59
2022/08/31 07:53:14;;;;;;;4.82;0.40;;;;;;;;;;5063210;28;20041;-59
2022/08/31 07:55:41;;;;;;;3.88;0.40;;;;;;;;;;5063270;28;20043;-59
2022/08/31 07:58:14;;;;;;;2.85;0.60;;;;;;;;;;5063734;28;20049;-59
2022/08/31 08:00:42;;;;;;;3.33;0.40;;;;;;;;;;5063806;28;20518;-59
2022/08/31 08:03:12;;;;;;;8.93;0.65;;;;;;;;;;5062500;28;20059;-59
2022/08/31 08:05:40;;;;;;;1.70;0.60;;;;;;;;;;5063698;28;20055;-59
2022/08/31 08:08:07;;;;;;;;;;;;;;;;;;5062731;28;20134;-59
2022/08/31 08:10:33;;;;;;;1.90;0.40;;;;;;;;;;5063669;28;19927;-59
2022/08/31 08:13:02;;;;;;;1.90;0.50;;;;;;;;;;5063552;28;20074;-60
2022/08/31 08:15:29;;;;;;;0.82;0.32;;;;;;;;;;5062772;28;20048;-59
2022/08/31 08:17:55;;;;;;;3.15;0.60;;;;;;;;;;5051864;28;20127;-59
2022/08/31 08:20:22;;;;;;;6.95;0.38;;;;;;;;;;5061049;28;20687;-59
2022/08/31 08:22:49;;;;;;;1.60;0.30;;;;;;;;;;5062423;28;20056;-59
2022/08/31 08:25:15;;;;;;;2.88;0.32;;;;;;;;;;5063500;28;20045;-59
2022/08/31 08:27:41;;;;;;;13.18;0.70;;;;;;;;;;5062869;28;20041;-59
2022/08/31 08:30:11;;;;;;;3.08;0.52;;;;;;;;;;5063288;28;20071;-59
2022/08/31 08:32:39;;;;;;;2.28;0.40;;;;;;;;;;5062917;28;20107;-60
2022/08/31 08:35:06;;;;;;;4.45;0.30;;;;;;;;;;5062846;28;20059;-59
2022/08/31 08:37:32;;;;;;;3.30;0.38;;;;;;;;;;5062217;28;20040;-59
2022/08/31 08:40:00;;;;;;;5.15;0.60;;;;;;;;;;5063666;28;20048;-59
2022/08/31 08:42:26;;;;;;;7.88;0.40;;;;;;;;;;5063223;28;20684;-59
2022/08/31 08:44:53;;;;;;;2.08;0.30;;;;;;;;;;5062416;28;20089;-59
2022/08/31 08:47:21;;;;;;;2.05;0.28;;;;;;;;;;5063007;28;20052;-59
2022/08/31 08:49:48;;;;;;;;;;;;;;;;;;5062550;28;20116;-59
2022/08/31 08:52:28;;;;;;;6.97;0.40;;;;;;;;;;5062894;28;19921;-59
2022/08/31 08:54:56;;;;;;;6.30;0.45;;;;;;;;;;5063241;28;20080;-59
2022/08/31 08:57:24;;;;;;;4.60;0.40;;;;;;;;;;5062799;28;20040;-59
2022/08/31 08:59:52;;;;;;;1.42;0.32;;;;;;;;;;5062432;28;20141;-59
2022/08/31 09:02:21;;;;;;;5.55;0.30;;;;;;;;;;5062480;28;20059;-59
2022/08/31 09:04:58;;;;;;;1.30;0.30;;;;;;;;;;5061113;28;20551;-60
2022/08/31 09:07:46;;;;;;;3.65;0.52;;;;;;;;;;5062107;28;20040;-59
2022/08/31 09:10:25;;;;;;;1.02;0.28;;;;;;;;;;5062333;28;20141;-59
2022/08/31 09:12:56;;;;;;;5.10;0.52;;;;;;;;;;5062395;28;20091;-59
2022/08/31 09:15:35;;;;;;;1.77;0.32;;;;;;;;;;5062604;28;20564;-59
2022/08/31 09:18:37;;;;;;;0.98;0.28;;;;;;;;;;5049059;28;20045;-60
2022/08/31 09:21:05;;;;;;;0.73;0.38;;;;;;;;;;5052237;28;20121;-59
2022/08/31 09:23:33;;;;;;;3.38;0.30;;;;;;;;;;5061234;28;20041;-60
2022/08/31 09:26:03;;;;;;;1.27;0.40;;;;;;;;;;5062642;28;20135;-60
2022/08/31 09:28:39;;;;;;;2.35;0.57;;;;;;;;;;5062494;28;20108;-60
2022/08/31 09:31:05;;;;;;;0.47;0.20;;;;;;;;;;5062201;28;20552;-60
2022/08/31 09:33:33;;;;;;;3.60;0.20;;;;;;;;;;5061964;28;20029;-60
2022/08/31 09:36:14;;;;;;;1.63;0.32;;;;;;;;;;5062167;28;20579;-60
2022/08/31 09:38:40;;;;;;;4.22;0.50;;;;;;;;;;5061373;28;20041;-60
2022/08/31 09:41:32;;;;;;;2.42;0.40;;;;;;;;;;5060903;28;20479;-60
2022/08/31 09:44:17;;;;;;;3.65;0.30;;;;;;;;;;5061746;28;20085;-59
2022/08/31 09:46:52;;;;;;;2.35;0.28;;;;;;;;;;5062062;28;20052;-60
2022/08/31 09:49:20;;;;;;;2.53;0.30;;;;;;;;;;5062014;28;20041;-60
2022/08/31 09:51:48;;;;;;;3.45;0.25;;;;;;;;;;5061563;28;20037;-59
2022/08/31 09:57:00;;;;;;;4.43;0.40;;;;;;;;;;5062526;28;20148;-59
2022/08/31 09:59:38;;;;;;;4.18;0.30;;;;;;;;;;5062703;28;20727;-59
2022/08/31 10:02:07;;;;;;;2.67;0.30;;;;;;;;;;5061945;28;20502;-60
2022/08/31 10:04:46;;;;;;;4.20;0.30;;;;;;;;;;5061671;28;20051;-60
2022/08/31 10:07:30;;;;;;;2.88;0.35;;;;;;;;;;5061367;28;20044;-60
2022/08/31 10:10:09;;;;;;;0.57;0.30;;;;;;;;;;5061919;28;20380;-59
2022/08/31 10:12:44;;;;;;;0.80;0.40;;;;;;;;;;5062239;28;20498;-60
2022/08/31 10:15:10;;;;;;;2.72;0.35;;;;;;;;;;5062077;28;20068;-60
2022/08/31 10:17:40;;;;;;;3.30;0.47;;;;;;;;;;5052583;28;20049;-60
2022/08/31 10:20:11;;;;;;;9.20;0.50;;;;;;;;;;5057130;28;20037;-60
2022/08/31 10:22:47;;;;;;;10.13;0.40;;;;;;;;;;5061192;28;20055;-60
2022/08/31 10:25:33;;;;;;;3.20;0.45;;;;;;;;;;5062648;28;20510;-60
2022/08/31 10:28:06;;;;;;;8.45;0.60;;;;;;;;;;5065088;28;20070;-60
2022/08/31 10:30:36;;;;;;;1.42;0.30;;;;;;;;;;5064983;28;20138;-60
2022/08/31 10:33:04;;;;;;;7.15;0.50;;;;;;;;;;5055169;28;20112;-59
2022/08/31 10:35:39;;;;;;;3.30;0.20;;;;;;;;;;5053889;28;20055;-60
2022/08/31 10:38:16;;;;;;;0.85;0.30;;;;;;;;;;5042024;28;20052;-59
2022/08/31 10:40:46;;;;;;;2.72;0.45;;;;;;;;;;5055080;28;20620;-60
2022/08/31 10:43:16;;;;;;;1.50;0.40;;;;;;;;;;5061012;28;20040;-59
2022/08/31 10:45:44;;;;;;;5.68;0.30;;;;;;;;;;5058298;28;20076;-60
2022/08/31 10:48:11;;;;;;;2.05;0.40;;;;;;;;;;5061506;28;20056;-59
2022/08/31 10:50:48;;;;;;;2.20;0.10;;;;;;;;;;5059240;28;20083;-60
2022/08/31 10:53:21;;;;;;;2.75;0.30;;;;;;;;;;5055677;28;20100;-59
2022/08/31 10:55:54;;;;;;;4.13;0.30;;;;;;;;;;5059581;28;20045;-59
2022/08/31 10:58:26;;;;;;;4.25;0.40;;;;;;;;;;5041895;28;20044;-59
2022/08/31 11:00:55;;;;;;;2.22;0.60;;;;;;;;;;5041944;28;20062;-60
2022/08/31 11:03:34;;;;;;;4.38;0.43;;;;;;;;;;5042170;28;20140;-59
2022/08/31 11:06:04;;;;;;;1.50;0.30;;;;;;;;;;5058789;28;20156;-60
2022/08/31 11:08:47;;;;;;;1.85;0.30;;;;;;;;;;5052448;28;20056;-60
2022/08/31 11:11:18;;;;;;;1.60;0.47;;;;;;;;;;5042062;28;20056;-60
2022/08/31 11:13:52;;;;;;;19.60;0.70;;;;;;;;;;5042115;28;20134;-60
2022/08/31 11:16:20;;;;;;;2.53;0.50;;;;;;;;;;5055098;28;20414;-59
2022/08/31 11:18:46;;;;;;;3.38;0.60;;;;;;;;;;5045692;28;20494;-60
2022/08/31 11:21:19;;;;;;;1.83;0.30;;;;;;;;;;5062268;28;20056;-60
2022/08/31 11:23:52;;;;;;;3.33;0.32;;;;;;;;;;5060783;28;20055;-59
2022/08/31 11:26:19;;;;;;;1.58;0.30;;;;;;;;;;5060931;28;20056;-59
2022/08/31 11:28:49;;;;;;;0.95;0.30;;;;;;;;;;5061755;28;20410;-59
2022/08/31 11:31:22;;;;;;;3.05;0.40;;;;;;;;;;5060564;28;20502;-59
2022/08/31 11:33:53;;;;;;;3.35;0.40;;;;;;;;;;5041204;28;20577;-59
2022/08/31 11:36:38;;;;;;;18.63;1.10;;;;;;;;;;5041043;28;20056;-59
2022/08/31 11:39:04;;;;;;;3.13;0.30;;;;;;;;;;5040233;28;20053;-60
2022/08/31 11:41:30;;;;;;;3.03;0.30;;;;;;;;;;5041762;28;20710;-60
2022/08/31 11:43:58;;;;;;;4.03;0.30;;;;;;;;;;5040409;28;20056;-60
2022/08/31 11:46:24;;;;;;;1.80;0.13;;;;;;;;;;5042020;28;20048;-59
2022/08/31 11:48:50;;;;;;;0.85;0.30;;;;;;;;;;5041372;28;20256;-59
2022/08/31 11:51:35;;;;;;;21.92;1.05;;;;;;;;;;5041907;28;20110;-60
2022/08/31 11:54:03;;;;;;;0.82;0.30;;;;;;;;;;5040753;28;20070;-59
2022/08/31 11:56:35;;;;;;;4.65;0.40;;;;;;;;;;5041256;28;20122;-60
2022/08/31 11:59:20;;;;;;;7.15;0.60;;;;;;;;;;5040763;28;20087;-60
2022/08/31 12:01:46;;;;;;;3.35;0.30;;;;;;;;;;5041191;28;20149;-59
2022/08/31 12:04:35;;;;;;;0.93;0.30;;;;;;;;;;5041747;28;20150;-59
2022/08/31 12:07:03;;;;;;;2.92;0.40;;;;;;;;;;5040570;28;20143;-60
2022/08/31 12:09:41;;;;;;;8.80;0.20;;;;;;;;;;5040982;28;20059;-60
2022/08/31 12:12:13;;;;;;;2.50;0.28;;;;;;;;;;5041366;28;20080;-60
2022/08/31 12:14:46;;;;;;;2.65;0.25;;;;;;;;;;5039997;28;20534;-60
2022/08/31 12:17:23;;;;;;;0.85;0.30;;;;;;;;;;5041108;28;20080;-60
2022/08/31 12:19:58;;;;;;;14.70;1.05;;;;;;;;;;5054302;28;20045;-60
2022/08/31 12:25:29;;;;;;;3.33;0.20;;;;;;;;;;5060118;28;20045;-59
2022/08/31 12:28:06;;;;;;;3.60;0.30;;;;;;;;;;5059981;28;20131;-60
2022/08/31 12:30:32;;;;;;;1.77;0.40;;;;;;;;;;5060809;28;20052;-60
2022/08/31 12:33:03;;;;;;;1.83;0.20;;;;;;;;;;5061357;28;20885;-60
2022/08/31 12:35:30;;;;;;;1.00;0.28;;;;;;;;;;5059643;28;20131;-60
2022/08/31 12:37:59;;;;;;;5.35;0.20;;;;;;;;;;5060394;28;20044;-59
2022/08/31 12:40:27;;;;;;;1.48;0.20;;;;;;;;;;5060917;28;20088;-59
2022/08/31 12:42:56;;;;;;;1.60;0.30;;;;;;;;;;5060519;28;20040;-60
2022/08/31 12:45:33;;;;;;;1.48;0.40;;;;;;;;;;5060339;28;20056;-59
2022/08/31 12:48:06;;;;;;;6.10;0.40;;;;;;;;;;5060224;28;20044;-60
2022/08/31 12:50:41;;;;;;;4.03;0.20;;;;;;;;;;5060515;28;20133;-60
2022/08/31 12:53:26;;;;;;;4.78;0.35;;;;;;;;;;5059438;28;20063;-59
2022/08/31 12:55:58;;;;;;;3.60;0.32;;;;;;;;;;5060005;28;20052;-59
2022/08/31 12:58:45;;;;;;;3.13;0.40;;;;;;;;;;5060452;28;20131;-60
2022/08/31 13:01:21;;;;;;;3.00;0.45;;;;;;;;;;5059981;28;20135;-60
2022/08/31 13:03:49;;;;;;;1.77;0.32;;;;;;;;;;5059937;28;20094;-59
2022/08/31 13:06:22;;;;;;;1.15;0.20;;;;;;;;;;5060457;28;20044;-59
2022/08/31 13:08:50;;;;;;;2.47;0.17;;;;;;;;;;5059218;28;20052;-59
2022/08/31 13:11:24;;;;;;;5.83;0.60;;;;;;;;;;5059993;28;20044;-60
2022/08/31 13:13:52;;;;;;;4.28;0.43;;;;;;;;;;5059207;28;20044;-60
2022/08/31 13:16:18;;;;;;;3.63;0.88;;;;;;;;;;5058966;28;20853;-60
2022/08/31 13:18:45;;;;;;;3.10;0.30;;;;;;;;;;5046064;28;20108;-60
2022/08/31 13:21:20;;;;;;;17.30;0.60;;;;;;;;;;5060220;28;20075;-60
2022/08/31 13:23:47;;;;;;;0.60;0.20;;;;;;;;;;5059209;28;20051;-59
2022/08/31 13:26:25;;;;;;;1.52;0.30;;;;;;;;;;5059303;28;20063;-60
2022/08/31 13:28:54;;;;;;;2.10;0.20;;;;;;;;;;5059459;28;20055;-59
2022/08/31 13:31:22;;;;;;;1.63;0.20;;;;;;;;;;5060278;28;20127;-60
2022/08/31 13:33:48;;;;;;;0.88;0.32;;;;;;;;;;5058073;28;20194;-60
2022/08/31 13:36:30;;;;;;;1.38;0.30;;;;;;;;;;5059984;28;20141;-60
2022/08/31 13:38:57;;;;;;;1.20;0.30;;;;;;;;;;5058221;28;20109;-60
2022/08/31 13:41:26;;;;;;;1.75;0.35;;;;;;;;;;5060204;28;20706;-60
2022/08/31 13:43:57;;;;;;;7.05;0.32;;;;;;;;;;5059085;28;20105;-59
2022/08/31 13:46:26;;;;;;;2.08;0.22;;;;;;;;;;5058584;28;20048;-59
2022/08/31 13:49:00;;;;;;;2.35;0.40;;;;;;;;;;5057478;28;20575;-60
2022/08/31 13:51:28;;;;;;;2.80;0.82;;;;;;;;;;5060720;28;20048;-60
2022/08/31 13:53:54;;;;;;;0.77;0.30;;;;;;;;;;5059665;28;20040;-60
2022/08/31 13:59:15;;;;;;;2.35;0.38;;;;;;;;;;5059553;28;20136;-60
2022/08/31 14:01:46;;;;;;;2.95;0.30;;;;;;;;;;5062749;28;20103;-60
2022/08/31 14:07:20;;;;;;;1.98;0.30;;;;;;;;;;5063165;28;20486;-60
2022/08/31 14:09:49;;;;;;;3.35;0.20;;;;;;;;;;5063118;28;20048;-60
2022/08/31 14:12:35;;;;;;;5.45;0.40;;;;;;;;;;5063535;28;20181;-60
2022/08/31 14:15:08;;;;;;;1.23;0.20;;;;;;;;;;5062015;28;20048;-60
2022/08/31 14:17:35;;;;;;;0.77;0.20;;;;;;;;;;5053162;28;20051;-60
2022/08/31 14:20:20;;;;;;;2.75;0.30;;;;;;;;;;5058451;28;20090;-60
2022/08/31 14:22:48;;;;;;;0.70;0.20;;;;;;;;;;5062049;28;20056;-60
2022/08/31 14:25:18;;;;;;;7.63;0.45;;;;;;;;;;5063223;28;20059;-60
2022/08/31 14:27:45;;;;;;;6.03;0.50;;;;;;;;;;5063023;28;20589;-59
2022/08/31 14:30:11;;;;;;;2.38;0.30;;;;;;;;;;5062957;28;20071;-59
2022/08/31 14:32:37;;;;;;;2.03;0.30;;;;;;;;;;5063072;28;20102;-60
2022/08/31 14:35:06;;;;;;;3.40;0.30;;;;;;;;;;5062214;28;20048;-60
2022/08/31 14:37:33;;;;;;;3.20;0.35;;;;;;;;;;5062218;28;20106;-60
2022/08/31 14:40:02;;;;;;;3.22;0.47;;;;;;;;;;5063214;28;20204;-60
2022/08/31 14:42:33;;;;;;;2.33;0.40;;;;;;;;;;5061672;28;20055;-59
2022/08/31 14:45:03;;;;;;;5.75;0.20;;;;;;;;;;5065474;28;20098;-60
2022/08/31 14:47:31;;;;;;;2.85;0.40;;;;;;;;;;5064714;28;20036;-61
2022/08/31 14:50:04;;;;;;;0.40;0.20;;;;;;;;;;5065441;28;20041;-59
2022/08/31 14:52:33;;;;;;;4.70;0.30;;;;;;;;;;5064319;28;20098;-60
2022/08/31 14:55:01;;;;;;;5.03;0.30;;;;;;;;;;5065304;28;20105;-60
2022/08/31 14:57:28;;;;;;;6.97;0.38;;;;;;;;;;5065280;28;20047;-60
2022/08/31 14:59:58;;;;;;;1.50;0.30;;;;;;;;;;5065390;28;20086;-60
2022/08/31 15:02:25;;;;;;;2.65;0.30;;;;;;;;;;5064771;28;20402;-60
2022/08/31 15:04:55;;;;;;;1.75;0.28;;;;;;;;;;5065086;28;20599;-59
2022/08/31 15:07:21;;;;;;;1.90;0.28;;;;;;;;;;5064112;28;20041;-60
2022/08/31 15:09:47;;;;;;;2.42;0.38;;;;;;;;;;5064573;28;20066;-60
2022/08/31 15:12:14;;;;;;;3.17;0.22;;;;;;;;;;5063861;28;20406;-60
2022/08/31 15:14:41;;;;;;;2.95;0.35;;;;;;;;;;5064611;28;20040;-60